Siletz, OR

9:22 PM PDT on July 01, 2015 (GMT -0700)
Siletz | | Change Station
CLOSE
Current Station
Personal Weather Station
Location: Siletz, OR
Elevation: 256 ft
Nearby Weather Stations

Elev 256 ft 44.73 °N, 123.91 °W | Updated 0 second ago

Mostly Cloudy
Mostly Cloudy
63.0 °F
Feels Like 63.0 °F
N
0.0
Wind Variable Wind from East
Gusts 0.0 mph

Today
High -- | Low -- °F
--% Chance of Precip.
Yesterday
High -- | Low -- °F
Precip. -- in
5:33 AM 9:05 PM
Full, 100% visible
Pressure 30.01 in
Visibility 1.8 miles
Clouds Overcast 200 ft
Dew Point 54 °F
Humidity 74%
Rainfall 0.00 in
Snow Depth Not available.
UV 0 out of 12
Pollen 9.00 out of 12
Air Quality Not available.
Flu Activity Not available.
METAR KONP 020355Z AUTO 34007KT 1 3/4SM BR OVC002 13/12 A3001 RMK AO2

More Conditions Fewer Conditions

Pressure 30.01 in
Visibility 1.8 miles
Clouds Overcast 200 ft
Dew Point 54 °F
Humidity 74%
Rainfall 0.00 in
Snow Depth Not available.
UV 0 out of 12
Pollen 9.00 out of 12
Air Quality Not available.
Flu Activity Not available.
METAR KONP 020355Z AUTO 34007KT 1 3/4SM BR OVC002 13/12 A3001 RMK AO2

More Conditions Fewer Conditions

10-Day Weather Forecast

×

Almanac

Astronomy

Jul. 01, 2015 Rise Set
Actual Time
Civil Twilight
Nautical Twilight
Astronomical Twilight
Moon
Length of Visible Light
Length of Day
Tomorrow will be .
, % of the Moon is Illuminated

Today's Extremes

State Highs State Lows

Community

WunderPhotos

Upload Photos

1,834,412 photos uploaded!

WunderBlogs® & News

Nearby

Air Quality

  Air Quality AQ Index Pollutant
Not available.

Snow Depth

Station Depth Elevation

Earthquake Activity

City Distance Mag. Time & Date
Minimum magnitude displayed is 2.5.

Coastal Water Temperatures

Place Temperature

Stations

Nearby Weather Stations

Station Location Temp. Windchill Dew Point Humidity Wind Precip. Elev Updated Type